createdAt,value
2018-09-08T02:25:07.237Z,98295.09
2018-09-08T02:26:11.711Z,98293.67
2018-09-08T02:27:15.978Z,98297.39
2018-09-08T02:28:19.429Z,98297.19
2018-09-08T02:29:22.415Z,98299.28
2018-09-08T02:30:25.513Z,98303.97
2018-09-08T02:31:28.289Z,98304.06
2018-09-08T02:32:31.884Z,98300.25
2018-09-08T02:33:34.666Z,98299.26
2018-09-08T02:34:38.533Z,98296.02
2018-09-08T02:35:41.406Z,98303.16
2018-09-08T02:36:44.516Z,98305.87
2018-09-08T02:37:47.400Z,98304.42
2018-09-08T02:38:51.475Z,98307.11
2018-09-08T02:39:54.226Z,98311.04
2018-09-08T02:40:57.590Z,98305.25
2018-09-08T02:42:03.708Z,98304.73
2018-09-08T02:43:08.350Z,98313.30
2018-09-08T02:44:11.312Z,98305.80
2018-09-08T02:45:14.098Z,98305.58
2018-09-08T02:46:16.890Z,98310.44
2018-09-08T02:47:20.403Z,98304.42
2018-09-08T02:48:23.156Z,98303.49
2018-09-08T02:49:26.233Z,98296.52
2018-09-08T02:50:31.663Z,98300.50
2018-09-08T02:51:34.467Z,98299.03
2018-09-08T02:52:37.354Z,98296.31
2018-09-08T02:53:40.146Z,98295.67
2018-09-08T02:54:42.971Z,98299.91
2018-09-08T02:55:46.062Z,98305.66
2018-09-08T02:56:48.787Z,98312.22
2018-09-08T02:57:51.558Z,98307.59
2018-09-08T02:58:54.346Z,98314.58
2018-09-08T02:59:57.117Z,98313.33
2018-09-08T03:00:59.923Z,98309.00
2018-09-08T03:02:03.956Z,98306.08
2018-09-08T03:03:06.731Z,98308.83
2018-09-08T03:04:09.488Z,98308.92
2018-09-08T03:05:12.270Z,98310.22
2018-09-08T03:06:15.017Z,98306.16
2018-09-08T03:07:17.783Z,98313.86
2018-09-08T03:08:20.843Z,98314.09
2018-09-08T03:09:23.643Z,98311.58
2018-09-08T03:10:26.398Z,98317.20
2018-09-08T03:11:30.077Z,98317.97
2018-09-08T03:12:32.858Z,98315.00
2018-09-08T03:13:35.620Z,98319.13
2018-09-08T03:14:39.000Z,98314.43
2018-09-08T03:15:42.569Z,98316.83
2018-09-08T03:16:46.497Z,98319.06
2018-09-08T03:17:49.250Z,98317.51
2018-09-08T03:18:52.016Z,98320.75
2018-09-08T03:19:54.828Z,98314.80
2018-09-08T03:20:57.873Z,98320.48
2018-09-08T03:22:01.411Z,98320.42
2018-09-08T03:23:04.178Z,98316.61
2018-09-08T03:24:07.487Z,98316.30
2018-09-08T03:25:10.267Z,98317.62
2018-09-08T03:26:13.046Z,98319.52
2018-09-08T03:27:16.237Z,98318.73
2018-09-08T03:28:19.026Z,98318.06
2018-09-08T03:29:21.796Z,98319.56
2018-09-08T03:30:25.051Z,98317.93
2018-09-08T03:31:28.597Z,98316.85
2018-09-08T03:32:31.351Z,98324.77
2018-09-08T03:33:34.443Z,98325.04
2018-09-08T03:34:37.309Z,98322.34
2018-09-08T03:35:40.054Z,98325.11
2018-09-08T03:36:42.835Z,98322.34
2018-09-08T03:37:45.582Z,98326.61
2018-09-08T03:38:48.326Z,98327.71
2018-09-08T03:39:51.432Z,98328.33
2018-09-08T03:40:54.217Z,98329.43
2018-09-08T03:41:57.023Z,98332.19
2018-09-08T03:42:59.737Z,98339.64
2018-09-08T03:44:02.529Z,98339.33
2018-09-08T03:45:05.308Z,98338.97
2018-09-08T03:46:08.408Z,98338.81
2018-09-08T03:47:11.172Z,98344.19
2018-09-08T03:48:13.949Z,98338.50
2018-09-08T03:49:16.752Z,98339.02
2018-09-08T03:50:19.544Z,98340.16
2018-09-08T03:51:22.995Z,98343.59
2018-09-08T03:52:26.171Z,98351.83
2018-09-08T03:53:28.926Z,98350.48
2018-09-08T03:54:31.708Z,98345.59
2018-09-08T03:55:34.452Z,98351.67
2018-09-08T03:56:37.261Z,98351.22
2018-09-08T03:57:40.021Z,98349.07
2018-09-08T03:58:43.044Z,98346.73
2018-09-08T03:59:45.794Z,98346.36
2018-09-08T04:00:48.563Z,98350.27
2018-09-08T04:01:51.310Z,98356.58
2018-09-08T04:02:54.068Z,98354.59
2018-09-08T04:03:57.147Z,98351.25
2018-09-08T04:05:00.192Z,98357.16
2018-09-08T04:06:02.933Z,98350.09
2018-09-08T04:07:05.715Z,98352.70
2018-09-08T04:08:08.485Z,98354.05
2018-09-08T04:09:12.245Z,98350.69
2018-09-08T04:10:15.012Z,98356.57
2018-09-08T04:11:18.227Z,98358.19
2018-09-08T04:12:21.145Z,98354.23
2018-09-08T04:13:23.979Z,98353.60
2018-09-08T04:14:26.758Z,98356.92
2018-09-08T04:15:29.565Z,98351.45
2018-09-08T04:16:32.351Z,98352.30
2018-09-08T04:17:35.434Z,98354.94
2018-09-08T04:18:38.214Z,98351.06
2018-09-08T04:19:40.980Z,98359.70
2018-09-08T04:20:44.121Z,98357.67
2018-09-08T04:21:46.891Z,98356.44
2018-09-08T04:22:49.651Z,98359.41
2018-09-08T04:23:52.796Z,98362.73
2018-09-08T04:24:55.616Z,98356.31
2018-09-08T04:25:58.381Z,98356.39
2018-09-08T04:27:01.146Z,98358.80
2018-09-08T04:28:03.889Z,98357.74
2018-09-08T04:29:06.679Z,98358.45
2018-09-08T04:30:09.742Z,98358.98
2018-09-08T04:31:12.509Z,98368.72
2018-09-08T04:32:16.229Z,98366.05
2018-09-08T04:33:19.779Z,98371.20
2018-09-08T04:34:22.568Z,98369.59
2018-09-08T04:35:25.388Z,98373.43
2018-09-08T04:36:28.468Z,98372.61
2018-09-08T04:37:31.418Z,98379.85
2018-09-08T04:38:35.093Z,98383.44
2018-09-08T04:39:38.012Z,98380.43
2018-09-08T04:40:40.815Z,98382.17
2018-09-08T04:41:43.607Z,98383.83
2018-09-08T04:42:46.741Z,98384.31
2018-09-08T04:43:49.522Z,98380.08
2018-09-08T04:44:52.374Z,98380.43
2018-09-08T04:45:56.558Z,98382.97
2018-09-08T04:46:59.342Z,98387.28
2018-09-08T04:48:02.113Z,98383.31
2018-09-08T04:49:05.231Z,98389.16
2018-09-08T04:50:08.022Z,98387.02
2018-09-08T04:51:10.770Z,98389.73
2018-09-08T04:52:13.535Z,98391.30
2018-09-08T04:53:16.342Z,98388.47
2018-09-08T04:54:19.118Z,98391.48
2018-09-08T04:55:21.897Z,98385.36
2018-09-08T04:56:24.660Z,98396.76
2018-09-08T04:57:27.458Z,98390.55
2018-09-08T04:58:30.258Z,98391.65
2018-09-08T04:59:33.070Z,98392.21
2018-09-08T05:00:36.263Z,98393.79
2018-09-08T05:01:39.039Z,98397.32
2018-09-08T05:02:41.785Z,98393.60
2018-09-08T05:03:44.538Z,98396.16
2018-09-08T05:04:47.316Z,98391.72
2018-09-08T05:05:50.094Z,98398.63
2018-09-08T05:06:53.341Z,98393.87
2018-09-08T05:07:56.418Z,98393.78
2018-09-08T05:08:59.274Z,98392.34
2018-09-08T05:10:02.151Z,98393.05
2018-09-08T05:11:05.498Z,98386.27
2018-09-08T05:12:08.276Z,98393.59
2018-09-08T05:13:11.333Z,98394.30
2018-09-08T05:14:14.095Z,98387.15
2018-09-08T05:15:17.854Z,98387.71
2018-09-08T05:16:20.658Z,98384.91
2018-09-08T05:17:23.464Z,98382.99
2018-09-08T05:18:26.227Z,98390.32
2018-09-08T05:19:29.307Z,98391.11
2018-09-08T05:20:32.098Z,98392.38
2018-09-08T05:21:34.841Z,98383.70
2018-09-08T05:22:37.673Z,98382.82
2018-09-08T05:23:40.512Z,98382.82
2018-09-08T05:24:43.293Z,98384.40
2018-09-08T05:25:46.341Z,98380.67
2018-09-08T05:26:49.095Z,98380.89
2018-09-08T05:27:51.897Z,98381.27
2018-09-08T05:28:54.656Z,98385.56
2018-09-08T05:29:57.423Z,98384.34
2018-09-08T05:33:31.314Z,98381.36
2018-09-08T05:34:34.335Z,98389.17
2018-09-08T05:35:37.977Z,98389.81
2018-09-08T05:36:40.759Z,98391.98
2018-09-08T05:37:43.523Z,98391.61
2018-09-08T05:38:46.594Z,98392.02
2018-09-08T05:39:49.366Z,98391.63
2018-09-08T05:40:52.116Z,98387.80
2018-09-08T05:41:54.895Z,98392.38
2018-09-08T05:42:57.839Z,98394.04
2018-09-08T05:44:00.614Z,98395.17
2018-09-08T05:45:04.277Z,98395.61
2018-09-08T05:46:08.443Z,98391.17
2018-09-08T05:47:11.864Z,98402.16
2018-09-08T05:48:14.770Z,98398.14
2018-09-08T05:49:17.535Z,98399.71
2018-09-08T05:50:20.265Z,98404.39
2018-09-08T05:51:24.783Z,98404.61
2018-09-08T05:52:28.175Z,98405.49
2018-09-08T05:53:30.960Z,98407.50
2018-09-08T05:54:33.768Z,98406.05
2018-09-08T05:56:06.060Z,98407.22
2018-09-08T05:57:09.198Z,98412.96
2018-09-08T05:58:12.270Z,98407.90
2018-09-08T05:59:15.053Z,98406.06
2018-09-08T06:00:17.823Z,98415.50
2018-09-08T06:01:21.604Z,98409.07
2018-09-08T06:02:24.524Z,98402.02
2018-09-08T06:03:27.279Z,98407.33
2018-09-08T06:04:30.328Z,98408.61
2018-09-08T06:05:33.752Z,98410.13
2018-09-08T06:06:36.582Z,98408.98
2018-09-08T06:07:39.337Z,98406.63
2018-09-08T06:08:43.570Z,98407.84
2018-09-08T06:09:47.990Z,98405.38
2018-09-08T06:10:51.202Z,98410.99
2018-09-08T06:11:53.958Z,98412.30
2018-09-08T06:12:56.731Z,98410.55
2018-09-08T06:13:59.525Z,98410.19
2018-09-08T06:15:02.343Z,98411.42
2018-09-08T06:16:05.269Z,98413.02
2018-09-08T06:17:08.338Z,98411.80
2018-09-08T06:18:11.112Z,98411.62
2018-09-08T06:19:15.150Z,98413.46
2018-09-08T06:20:17.950Z,98418.74
2018-09-08T06:21:20.706Z,98411.91
2018-09-08T06:22:23.514Z,98411.20
2018-09-08T06:23:26.654Z,98415.72
2018-09-08T06:24:29.441Z,98415.80
2018-09-08T06:25:32.887Z,98410.02
2018-09-08T06:26:35.703Z,98412.68
2018-09-08T06:27:38.467Z,98410.97
2018-09-08T06:28:41.345Z,98411.58
2018-09-08T06:29:44.368Z,98419.61
2018-09-08T06:30:47.170Z,98418.24
2018-09-08T06:31:50.013Z,98419.73
2018-09-08T06:32:52.795Z,98415.92
2018-09-08T06:33:55.646Z,98419.20
2018-09-08T06:34:58.500Z,98421.68
2018-09-08T06:36:01.603Z,98418.66
2018-09-08T06:37:04.394Z,98423.13
2018-09-08T06:38:07.196Z,98423.52
2018-09-08T06:39:12.007Z,98426.33
2018-09-08T06:40:14.788Z,98418.50
2018-09-08T06:41:18.539Z,98427.75
2018-09-08T06:42:21.360Z,98426.52
2018-09-08T06:43:24.145Z,98422.13
2018-09-08T06:44:27.083Z,98425.64
2018-09-08T06:45:29.886Z,98428.28
2018-09-08T06:46:32.906Z,98433.36
2018-09-08T06:47:36.523Z,98427.77
2018-09-08T06:48:39.576Z,98425.09
2018-09-08T06:49:42.417Z,98421.61
2018-09-08T06:50:45.201Z,98418.25
2018-09-08T06:51:48.023Z,98421.19
2018-09-08T06:52:50.830Z,98424.61
2018-09-08T06:53:53.633Z,98427.77
2018-09-08T06:54:56.828Z,98422.19
2018-09-08T06:55:59.706Z,98422.55
2018-09-08T06:57:02.498Z,98425.88
2018-09-08T06:58:06.016Z,98423.23
2018-09-08T06:59:09.578Z,98419.34
2018-09-08T07:00:12.413Z,98431.23
2018-09-08T07:01:15.498Z,98425.67
2018-09-08T07:02:18.271Z,98423.31
2018-09-08T07:03:21.121Z,98422.55
2018-09-08T07:04:23.900Z,98422.80
2018-09-08T07:05:26.827Z,98427.30
2018-09-08T07:06:29.594Z,98425.39
2018-09-08T07:07:32.955Z,98423.23
2018-09-08T07:08:35.749Z,98421.73
2018-09-08T07:09:38.525Z,98421.77
2018-09-08T07:10:41.289Z,98419.23
2018-09-08T07:11:44.086Z,98421.89
2018-09-08T07:12:46.880Z,98419.04
2018-09-08T07:13:50.134Z,98419.55
2018-09-08T07:14:52.910Z,98420.99
2018-09-08T07:15:55.711Z,98422.27
2018-09-08T07:16:58.534Z,98422.21
2018-09-08T07:18:01.316Z,98424.78
2018-09-08T07:19:04.120Z,98424.23
2018-09-08T07:20:07.519Z,98419.16
2018-09-08T07:21:10.304Z,98423.95
2018-09-08T07:22:13.071Z,98422.50
2018-09-08T07:23:15.842Z,98425.16
2018-09-08T07:24:18.701Z,98426.34
2018-09-08T07:25:22.444Z,98423.75
2018-09-08T07:26:25.240Z,98422.00
2018-09-08T07:27:28.036Z,98421.11
2018-09-08T07:28:31.575Z,98418.21
2018-09-08T07:29:34.454Z,98420.16
2018-09-08T07:30:38.296Z,98422.19
2018-09-08T07:31:42.115Z,98419.67
2018-09-08T07:32:45.555Z,98414.14
2018-09-08T07:33:53.684Z,98415.86
2018-09-08T07:35:01.732Z,98423.06
2018-09-08T07:36:05.171Z,98424.99
2018-09-08T07:37:08.005Z,98421.47
2018-09-08T07:38:11.068Z,98419.39
2018-09-08T07:39:14.041Z,98423.50
2018-09-08T07:40:16.825Z,98425.75
2018-09-08T07:41:19.765Z,98424.77
2018-09-08T07:42:22.608Z,98422.55
2018-09-08T07:43:25.487Z,98423.34
2018-09-08T07:44:29.672Z,98422.23
2018-09-08T07:45:32.442Z,98423.39
2018-09-08T07:46:35.277Z,98428.64
2018-09-08T07:47:38.406Z,98425.88
2018-09-08T07:48:41.214Z,98422.53
2018-09-08T07:49:43.965Z,98423.52
2018-09-08T07:50:47.003Z,98423.02
2018-09-08T07:51:49.796Z,98420.59
2018-09-08T07:52:52.596Z,98419.98
2018-09-08T07:53:55.435Z,98414.25
2018-09-08T07:54:58.207Z,98419.11
2018-09-08T07:56:02.542Z,98423.52
2018-09-08T07:57:05.660Z,98418.33
2018-09-08T07:58:08.781Z,98415.98
2018-09-08T07:59:11.577Z,98421.63
2018-09-08T08:00:14.418Z,98423.31
2018-09-08T08:01:17.245Z,98420.89
2018-09-08T08:02:20.025Z,98418.58
2018-09-08T08:03:23.416Z,98424.27
2018-09-08T08:04:26.293Z,98422.45
2018-09-08T08:05:29.201Z,98420.73
2018-09-08T08:06:32.288Z,98420.03
2018-09-08T08:07:39.688Z,98417.96
2018-09-08T08:08:45.896Z,98416.69
2018-09-08T08:09:49.432Z,98416.52
2018-09-08T08:10:52.192Z,98419.19
2018-09-08T08:11:56.110Z,98421.91
2018-09-08T08:12:58.918Z,98418.00
2018-09-08T08:14:01.722Z,98414.52
2018-09-08T08:15:05.839Z,98415.23
2018-09-08T08:16:09.523Z,98415.02
2018-09-08T08:17:12.366Z,98418.28
2018-09-08T08:18:15.169Z,98417.39
2018-09-08T08:19:17.962Z,98417.16
2018-09-08T08:20:21.944Z,98421.55
2018-09-08T08:21:25.832Z,98416.84
2018-09-08T08:22:28.693Z,98414.30
2018-09-08T08:23:31.623Z,98414.29
2018-09-08T08:24:34.422Z,98408.88
2018-09-08T08:25:37.225Z,98412.52
2018-09-08T08:26:40.018Z,98412.37
2018-09-08T08:27:43.257Z,98417.19
2018-09-08T08:28:47.685Z,98421.51
2018-09-08T08:29:51.099Z,98415.41
2018-09-08T08:30:54.360Z,98423.62
2018-09-08T08:31:57.364Z,98417.41
2018-09-08T08:33:00.140Z,98415.30
2018-09-08T08:34:03.160Z,98415.81
2018-09-08T08:35:06.560Z,98419.45
2018-09-08T08:36:09.600Z,98426.06
2018-09-08T08:37:13.313Z,98420.67
2018-09-08T08:38:17.854Z,98424.55
2018-09-08T08:39:20.873Z,98431.70
2018-09-08T08:40:24.535Z,98430.93
2018-09-08T08:41:27.421Z,98426.27
2018-09-08T08:42:30.256Z,98419.84
2018-09-08T08:43:34.005Z,98417.20
2018-09-08T08:44:36.797Z,98417.23
2018-09-08T08:45:39.827Z,98415.94
2018-09-08T08:46:43.685Z,98419.61
2018-09-08T08:47:46.599Z,98416.86
2018-09-08T08:48:49.472Z,98413.89
2018-09-08T08:49:53.433Z,98413.62
2018-09-08T08:50:56.262Z,98410.52
2018-09-08T08:51:59.642Z,98410.28
2018-09-08T08:53:03.833Z,98414.16
2018-09-08T08:54:06.651Z,98416.45
2018-09-08T08:55:09.427Z,98414.02
2018-09-08T08:56:12.807Z,98423.23
2018-09-08T08:57:16.599Z,98423.03
2018-09-08T08:58:19.889Z,98417.09
2018-09-08T08:59:23.820Z,98417.05
2018-09-08T09:00:27.528Z,98423.30
2018-09-08T09:01:30.489Z,98418.92
2018-09-08T09:02:33.458Z,98417.81
2018-09-08T09:03:36.278Z,98422.02
2018-09-08T09:04:39.480Z,98420.22
2018-09-08T09:05:42.695Z,98416.55
2018-09-08T09:06:46.699Z,98425.16
2018-09-08T09:07:51.255Z,98429.88
2018-09-08T09:08:57.143Z,98424.73
2018-09-08T09:10:00.023Z,98426.55
2018-09-08T09:11:04.522Z,98429.42
2018-09-08T09:12:08.474Z,98435.84
2018-09-08T09:13:11.394Z,98431.32
2018-09-08T09:14:14.682Z,98437.59
2018-09-08T09:15:17.891Z,98440.17
2018-09-08T09:16:20.440Z,98443.63
2018-09-08T09:17:23.248Z,98445.52
2018-09-08T09:18:26.791Z,98436.43
2018-09-08T09:19:31.944Z,98429.55
2018-09-08T09:20:34.822Z,98431.22
2018-09-08T09:21:37.961Z,98433.28
2018-09-08T09:22:40.980Z,98431.94
2018-09-08T09:23:43.794Z,98433.27
2018-09-08T09:24:47.187Z,98431.84
2018-09-08T09:25:49.870Z,98426.62
2018-09-08T09:26:52.928Z,98433.51
2018-09-08T09:27:55.701Z,98432.47
2018-09-08T09:28:58.741Z,98432.71
2018-09-08T09:30:01.798Z,98427.38
2018-09-08T09:31:04.887Z,98430.70
2018-09-08T09:32:07.769Z,98427.66
2018-09-08T09:33:10.584Z,98415.10
2018-09-08T09:34:13.418Z,98420.86
2018-09-08T09:35:20.560Z,98419.98
2018-09-08T09:36:23.329Z,98416.94
2018-09-08T09:37:26.708Z,98416.16
2018-09-08T09:38:29.558Z,98424.29
2018-09-08T09:39:33.985Z,98422.60
2018-09-08T09:40:37.274Z,98418.80
2018-09-08T09:41:40.805Z,98422.19
2018-09-08T09:42:44.308Z,98419.86
2018-09-08T09:43:47.346Z,98411.55
2018-09-08T09:44:50.228Z,98412.39
2018-09-08T09:45:53.082Z,98403.27
2018-09-08T09:46:55.932Z,98409.61
2018-09-08T09:47:58.756Z,98414.07
2018-09-08T09:49:02.503Z,98409.75
2018-09-08T09:50:06.416Z,98408.62
2018-09-08T09:51:09.388Z,98422.22
2018-09-08T09:52:12.289Z,98412.19
2018-09-08T09:54:30.304Z,98421.69
2018-09-08T09:55:33.595Z,98425.21
2018-09-08T09:56:36.802Z,98426.28
2018-09-08T09:57:39.803Z,98421.50
2018-09-08T09:58:42.608Z,98427.61
2018-09-08T09:59:45.423Z,98427.02
2018-09-08T10:00:53.705Z,98428.14
2018-09-08T10:02:01.417Z,98421.92
2018-09-08T10:03:07.386Z,98422.48
2018-09-08T10:04:10.217Z,98422.03
2018-09-08T10:05:14.931Z,98420.59
2018-09-08T10:06:17.842Z,98414.22
2018-09-08T10:07:22.204Z,98418.56
2018-09-08T10:08:26.182Z,98416.39
2018-09-08T10:09:29.540Z,98421.67
2018-09-08T10:10:32.352Z,98427.65
2018-09-08T10:11:35.883Z,98421.44
2018-09-08T10:12:38.977Z,98421.14
2018-09-08T10:13:42.346Z,98422.59
2018-09-08T10:14:45.622Z,98406.48
2018-09-08T10:15:52.633Z,98422.64
2018-09-08T10:16:55.634Z,98426.60
2018-09-08T10:17:58.476Z,98419.54
2018-09-08T10:19:01.265Z,98417.48
2018-09-08T10:20:04.185Z,98411.34
2018-09-08T10:21:08.732Z,98418.27
2018-09-08T10:22:11.809Z,98420.97
2018-09-08T10:23:15.257Z,98411.63
2018-09-08T10:24:18.079Z,98411.86
2018-09-08T10:25:22.429Z,98416.80
2018-09-08T10:26:25.463Z,98412.58
2018-09-08T10:27:28.855Z,98410.86
2018-09-08T10:28:32.810Z,98413.78
2018-09-08T10:29:35.916Z,98412.25
2018-09-08T10:32:14.940Z,98407.31
2018-09-08T10:33:17.688Z,98408.30
2018-09-08T10:34:20.652Z,98407.28
2018-09-08T10:35:24.849Z,98409.73
2018-09-08T10:36:27.736Z,98408.76
2018-09-08T10:37:30.670Z,98402.20
2018-09-08T10:38:33.587Z,98405.09
2018-09-08T10:39:36.469Z,98409.87
2018-09-08T10:40:39.336Z,98403.22
2018-09-08T10:41:42.685Z,98403.77
2018-09-08T10:42:45.697Z,98395.48
2018-09-08T10:43:48.483Z,98408.67
2018-09-08T10:44:51.370Z,98403.81
2018-09-08T10:45:54.498Z,98405.52
2018-09-08T10:46:57.250Z,98395.97
2018-09-08T10:48:00.294Z,98397.80
2018-09-08T10:49:03.700Z,98396.73
2018-09-08T10:50:08.237Z,98402.97
2018-09-08T10:51:11.941Z,98395.15
2018-09-08T10:52:16.488Z,98391.86
2018-09-08T10:53:19.320Z,98393.23
2018-09-08T10:54:22.562Z,98394.22
2018-09-08T10:55:25.325Z,98398.11
2018-09-08T10:56:29.089Z,98391.45
2018-09-08T10:57:31.874Z,98396.42
2018-09-08T10:58:37.815Z,98397.23
2018-09-08T10:59:41.517Z,98393.52
2018-09-08T11:00:46.770Z,98404.62
2018-09-08T11:01:49.748Z,98402.21
2018-09-08T11:02:52.791Z,98403.02
2018-09-08T11:03:55.285Z,98396.53
2018-09-08T11:04:58.195Z,98399.27
2018-09-08T11:06:01.089Z,98403.57
2018-09-08T11:07:04.354Z,98390.86
2018-09-08T11:08:07.624Z,98399.05
2018-09-08T11:09:11.667Z,98400.42
2018-09-08T11:10:14.507Z,98394.87
2018-09-08T11:11:17.609Z,98395.41
2018-09-08T11:12:21.607Z,98401.36
2018-09-08T11:13:25.464Z,98400.46
2018-09-08T11:14:30.326Z,98401.84
2018-09-08T11:15:37.630Z,98402.56
2018-09-08T11:16:47.239Z,98398.16
2018-09-08T11:19:03.690Z,98394.68
2018-09-08T11:20:06.457Z,98395.46
2018-09-08T11:21:09.922Z,98388.70
2018-09-08T11:22:12.715Z,98388.11
2018-09-08T11:23:15.495Z,98398.17
2018-09-08T11:24:18.288Z,98399.94
2018-09-08T11:25:22.589Z,98398.08
2018-09-08T11:26:25.400Z,98402.17
2018-09-08T11:27:28.211Z,98388.98
2018-09-08T11:28:31.837Z,98387.55
2018-09-08T11:29:34.811Z,98385.92
2018-09-08T11:30:37.656Z,98385.28
2018-09-08T11:31:41.967Z,98386.82
2018-09-08T11:32:45.666Z,98380.86
2018-09-08T11:33:48.934Z,98377.74
2018-09-08T11:34:52.907Z,98377.61
2018-09-08T11:35:55.686Z,98378.64
2018-09-08T11:36:58.706Z,98384.05
2018-09-08T11:38:01.941Z,98379.39
2018-09-08T11:39:05.155Z,98380.80
2018-09-08T11:40:07.952Z,98396.94
2018-09-08T11:41:10.738Z,98391.17
2018-09-08T11:42:13.864Z,98387.45
2018-09-08T11:43:17.620Z,98385.92
2018-09-08T11:44:20.771Z,98382.17
2018-09-08T11:45:23.553Z,98387.19
2018-09-08T11:46:26.522Z,98383.32
2018-09-08T11:47:29.311Z,98382.30
2018-09-08T11:48:32.108Z,98381.88
2018-09-08T11:49:34.906Z,98375.00
2018-09-08T11:50:40.250Z,98373.09
2018-09-08T11:51:43.035Z,98373.31
2018-09-08T11:52:45.856Z,98374.25
2018-09-08T11:53:50.582Z,98372.45
2018-09-08T11:54:53.588Z,98376.95
2018-09-08T11:55:56.455Z,98372.50
2018-09-08T11:56:59.696Z,98365.98
2018-09-08T11:58:02.447Z,98378.69
2018-09-08T11:59:05.255Z,98380.90
2018-09-08T12:00:08.051Z,98380.88
2018-09-08T12:01:10.996Z,98381.66
2018-09-08T12:02:14.149Z,98372.23
2018-09-08T12:03:17.279Z,98370.11
2018-09-08T12:04:20.052Z,98354.22
2018-09-08T12:05:22.796Z,98365.32
2018-09-08T12:06:25.631Z,98375.69
2018-09-08T12:07:28.414Z,98366.57
2018-09-08T12:08:32.581Z,98369.98
2018-09-08T12:09:36.134Z,98370.45
2018-09-08T12:10:39.871Z,98366.45
2018-09-08T12:11:47.616Z,98377.91
2018-09-08T12:12:50.647Z,98377.71
2018-09-08T12:13:54.969Z,98376.50
2018-09-08T12:14:57.757Z,98366.31
2018-09-08T12:16:00.500Z,98377.85
2018-09-08T12:17:04.930Z,98362.94
2018-09-08T12:18:07.725Z,98352.88
2018-09-08T12:19:10.540Z,98351.41
2018-09-08T12:20:14.634Z,98364.64
2018-09-08T12:21:17.381Z,98349.78
2018-09-08T12:22:20.210Z,98356.70
2018-09-08T12:23:23.733Z,98354.30
2018-09-08T12:24:26.804Z,98365.16
2018-09-08T12:25:30.197Z,98360.48
2018-09-08T12:26:33.242Z,98346.87
2018-09-08T12:27:36.104Z,98359.98
2018-09-08T12:28:40.638Z,98361.20
2018-09-08T12:29:43.419Z,98353.58
2018-09-08T12:30:46.731Z,98361.40
2018-09-08T12:31:49.462Z,98369.77
2018-09-08T12:32:52.299Z,98366.58
2018-09-08T12:33:55.973Z,98363.45
2018-09-08T12:34:58.767Z,98363.02
2018-09-08T12:36:01.528Z,98362.92
2018-09-08T12:37:04.472Z,98355.66
2018-09-08T12:38:07.921Z,98354.05
2018-09-08T12:39:11.817Z,98317.19
2018-09-08T12:40:17.645Z,98333.70
2018-09-08T12:41:20.564Z,98348.78
2018-09-08T12:42:25.022Z,98353.02
2018-09-08T12:43:28.497Z,98350.42
2018-09-08T12:44:32.557Z,98345.44
2018-09-08T12:45:36.486Z,98342.09
2018-09-08T12:46:40.429Z,98352.02
2018-09-08T12:47:43.393Z,98353.89
2018-09-08T12:48:47.445Z,98344.73
2018-09-08T12:49:54.663Z,98350.19
2018-09-08T12:50:59.473Z,98343.81
2018-09-08T12:52:03.347Z,98335.40
2018-09-08T12:54:23.097Z,98349.59
2018-09-08T12:55:26.673Z,98355.69
2018-09-08T12:56:29.609Z,98351.39
2018-09-08T12:57:34.816Z,98342.95
2018-09-08T12:58:37.890Z,98333.02
2018-09-08T12:59:41.486Z,98342.15
2018-09-08T13:00:44.486Z,98352.84
2018-09-08T13:01:47.416Z,98343.28
2018-09-08T13:02:52.004Z,98347.19
2018-09-08T13:03:56.636Z,98355.43
2018-09-08T13:05:00.743Z,98348.92
2018-09-08T13:06:04.505Z,98336.91
2018-09-08T13:07:07.415Z,98335.05
2018-09-08T13:08:11.178Z,98330.40
2018-09-08T13:09:14.516Z,98331.52
2018-09-08T13:10:17.627Z,98317.55
2018-09-08T13:11:20.481Z,98325.17
2018-09-08T13:12:23.265Z,98320.17
2018-09-08T13:13:26.404Z,98324.31
2018-09-08T13:14:31.964Z,98320.72
2018-09-08T13:15:34.812Z,98315.20
2018-09-08T13:16:41.526Z,98327.83
2018-09-08T13:17:44.745Z,98322.83
2018-09-08T13:18:48.798Z,98334.02
2018-09-08T13:19:51.905Z,98335.34
2018-09-08T13:20:55.507Z,98330.16
2018-09-08T13:22:00.289Z,98318.55
2018-09-08T13:23:03.528Z,98314.64
2018-09-08T13:24:10.417Z,98318.16
2018-09-08T13:25:13.249Z,98304.14
2018-09-08T13:26:16.295Z,98318.81
2018-09-08T13:27:20.531Z,98321.26
2018-09-08T13:28:24.201Z,98339.52
2018-09-08T13:29:27.096Z,98324.81
2018-09-08T13:30:32.086Z,98302.27
2018-09-08T13:31:37.228Z,98317.37
2018-09-08T13:32:40.541Z,98312.98
2018-09-08T13:33:45.273Z,98323.30
2018-09-08T13:34:48.935Z,98313.11
2018-09-08T13:35:52.687Z,98304.39
2018-09-08T13:36:56.443Z,98309.14
2018-09-08T13:37:59.380Z,98315.89
2018-09-08T13:39:02.948Z,98304.48
2018-09-08T13:40:05.855Z,98303.58
2018-09-08T13:41:08.676Z,98298.03
2018-09-08T13:42:11.680Z,98296.47
2018-09-08T13:43:14.692Z,98297.40
2018-09-08T13:44:18.618Z,98297.42
2018-09-08T13:45:22.777Z,98296.70
2018-09-08T13:46:25.674Z,98310.99
2018-09-08T13:47:29.055Z,98295.81
2018-09-08T13:48:33.190Z,98295.42
2018-09-08T13:49:37.272Z,98315.23
2018-09-08T13:50:40.163Z,98300.08
2018-09-08T13:51:44.260Z,98304.41
2018-09-08T13:52:47.542Z,98308.70
2018-09-08T13:53:51.758Z,98301.91
2018-09-08T13:54:55.237Z,98304.57
2018-09-08T13:55:58.519Z,98295.02
2018-09-08T13:57:01.576Z,98304.93
2018-09-08T13:58:04.589Z,98296.16
2018-09-08T13:59:07.595Z,98314.14
2018-09-08T14:00:10.856Z,98298.61
2018-09-08T14:01:14.642Z,98314.67
2018-09-08T14:02:19.633Z,98314.02
2018-09-08T14:03:24.707Z,98311.61
2018-09-08T14:04:27.739Z,98313.59
2018-09-08T14:05:31.618Z,98308.09
2018-09-08T14:06:34.925Z,98308.83
2018-09-08T14:07:41.307Z,98314.36
2018-09-08T14:08:45.190Z,98307.69
2018-09-08T14:09:48.205Z,98318.34
2018-09-08T14:10:51.027Z,98312.62
2018-09-08T14:11:53.876Z,98319.91
2018-09-08T14:12:57.071Z,98311.47
2018-09-08T14:13:59.863Z,98310.30
2018-09-08T14:15:02.683Z,98310.38
2018-09-08T14:16:05.565Z,98306.24
2018-09-08T14:17:08.331Z,98300.23
2018-09-08T14:18:11.101Z,98308.67
2018-09-08T14:19:15.392Z,98307.46
2018-09-08T14:20:19.308Z,98305.60
2018-09-08T14:21:22.367Z,98301.54
2018-09-08T14:22:25.780Z,98301.45
2018-09-08T14:23:29.818Z,98298.12
2018-09-08T14:24:32.618Z,98317.00
2018-09-08T14:25:39.542Z,98310.23
2018-09-08T14:26:42.387Z,98338.48
2018-09-08T14:27:46.585Z,98316.48
2018-09-08T14:28:52.573Z,98325.46
2018-09-08T14:29:55.667Z,98328.05
2018-09-08T14:31:01.186Z,98315.48
2018-09-08T14:32:04.377Z,98323.55
2018-09-08T14:33:08.888Z,98328.34
2018-09-08T14:34:11.666Z,98318.75
2018-09-08T14:35:14.599Z,98314.32
2018-09-08T14:36:17.387Z,98312.14
2018-09-08T14:37:20.697Z,98313.55
2018-09-08T14:38:24.170Z,98296.87
2018-09-08T14:39:27.197Z,98308.59
2018-09-08T14:40:30.310Z,98308.46
2018-09-08T14:41:33.081Z,98304.44
2018-09-08T14:42:35.853Z,98296.45
2018-09-08T14:43:38.629Z,98314.66
2018-09-08T14:44:41.736Z,98316.58
2018-09-08T14:45:45.327Z,98322.47
2018-09-08T14:46:48.278Z,98326.95
2018-09-08T14:47:51.495Z,98310.63
2018-09-08T14:48:55.388Z,98311.71
2018-09-08T14:49:58.858Z,98320.38
2018-09-08T14:51:03.664Z,98324.28
2018-09-08T14:52:06.882Z,98323.31
2018-09-08T14:53:09.681Z,98312.95
2018-09-08T14:54:12.467Z,98307.33
2018-09-08T14:55:15.210Z,98299.19
2018-09-08T14:56:18.032Z,98291.37